sensor_id;sensor_type;location;lat;lon;timestamp;pressure;altitude;pressure_sealevel;temperature;humidity
46583;BME280;32309;48.858;8.252;2023-07-31T00:00:00;100342.84;;;17.68;68.47
46583;BME280;32309;48.858;8.252;2023-07-31T00:02:00;100332.66;;;17.65;68.54
46583;BME280;32309;48.858;8.252;2023-07-31T00:04:00;100330.13;;;17.63;69.06
46583;BME280;32309;48.858;8.252;2023-07-31T00:06:01;100338.84;;;17.63;68.10
46583;BME280;32309;48.858;8.252;2023-07-31T00:08:01;100342.84;;;17.58;69.01
46583;BME280;32309;48.858;8.252;2023-07-31T00:10:01;100334.41;;;17.54;69.32
46583;BME280;32309;48.858;8.252;2023-07-31T05:12:18;100190.59;;;16.37;66.48
46583;BME280;32309;48.858;8.252;2023-07-31T05:14:18;100190.09;;;16.43;67.94
46583;BME280;32309;48.858;8.252;2023-07-31T05:16:20;100188.03;;;16.47;67.34
46583;BME280;32309;48.858;8.252;2023-07-31T05:18:20;100185.03;;;16.52;67.31
46583;BME280;32309;48.858;8.252;2023-07-31T05:20:20;100181.91;;;16.58;67.58
46583;BME280;32309;48.858;8.252;2023-07-31T05:22:21;100181.38;;;16.64;67.79
46583;BME280;32309;48.858;8.252;2023-07-31T05:24:21;100181.72;;;16.71;67.76
46583;BME280;32309;48.858;8.252;2023-07-31T05:26:22;100176.63;;;16.79;68.32
46583;BME280;32309;48.858;8.252;2023-07-31T05:28:22;100185.47;;;16.88;67.53
46583;BME280;32309;48.858;8.252;2023-07-31T05:30:22;100178.66;;;16.96;67.20
46583;BME280;32309;48.858;8.252;2023-07-31T05:32:22;100181.72;;;17.02;67.76
46583;BME280;32309;48.858;8.252;2023-07-31T05:34:23;100184.78;;;17.07;68.75
46583;BME280;32309;48.858;8.252;2023-07-31T05:36:23;100185.19;;;17.12;66.63
46583;BME280;32309;48.858;8.252;2023-07-31T05:38:23;100185.88;;;17.14;66.22
46583;BME280;32309;48.858;8.252;2023-07-31T05:40:24;100180.25;;;17.19;66.70
46583;BME280;32309;48.858;8.252;2023-07-31T05:42:24;100179.84;;;17.23;66.96
46583;BME280;32309;48.858;8.252;2023-07-31T05:44:24;100178.63;;;17.27;66.08
46583;BME280;32309;48.858;8.252;2023-07-31T05:46:24;100172.03;;;17.33;66.05
46583;BME280;32309;48.858;8.252;2023-07-31T05:48:25;100168.19;;;17.37;66.00
46583;BME280;32309;48.858;8.252;2023-07-31T05:50:27;100166.53;;;17.46;66.61
46583;BME280;32309;48.858;8.252;2023-07-31T05:52:30;100166.94;;;17.51;64.72
46583;BME280;32309;48.858;8.252;2023-07-31T05:54:31;100166.53;;;17.56;64.94
46583;BME280;32309;48.858;8.252;2023-07-31T05:56:32;100164.50;;;17.59;65.10
46583;BME280;32309;48.858;8.252;2023-07-31T05:58:34;100168.50;;;17.63;65.10
46583;BME280;32309;48.858;8.252;2023-07-31T06:00:34;100168.78;;;17.70;65.46
46583;BME280;32309;48.858;8.252;2023-07-31T06:02:34;100160.47;;;17.75;64.11
46583;BME280;32309;48.858;8.252;2023-07-31T06:04:36;100156.63;;;17.79;64.21
46583;BME280;32309;48.858;8.252;2023-07-31T06:06:37;100159.41;;;17.87;65.47
46583;BME280;32309;48.858;8.252;2023-07-31T06:08:37;100153.59;;;17.93;65.39
46583;BME280;32309;48.858;8.252;2023-07-31T06:10:37;100154.56;;;18.02;65.58
46583;BME280;32309;48.858;8.252;2023-07-31T06:12:38;100150.03;;;18.04;63.37
46583;BME280;32309;48.858;8.252;2023-07-31T06:14:38;100145.19;;;18.09;64.12
46583;BME280;32309;48.858;8.252;2023-07-31T06:16:38;100149.44;;;18.10;63.73
46583;BME280;32309;48.858;8.252;2023-07-31T06:18:39;100160.50;;;18.14;63.44
46583;BME280;32309;48.858;8.252;2023-07-31T06:20:39;100161.34;;;18.15;63.50
46583;BME280;32309;48.858;8.252;2023-07-31T06:22:41;100163.13;;;18.14;63.55
46583;BME280;32309;48.858;8.252;2023-07-31T06:24:41;100158.56;;;18.16;63.51
46583;BME280;32309;48.858;8.252;2023-07-31T06:26:41;100164.63;;;18.17;62.94
46583;BME280;32309;48.858;8.252;2023-07-31T06:28:41;100166.72;;;18.23;62.91
46583;BME280;32309;48.858;8.252;2023-07-31T06:30:42;100166.56;;;18.24;62.79
46583;BME280;32309;48.858;8.252;2023-07-31T06:32:42;100173.19;;;18.28;63.30
46583;BME280;32309;48.858;8.252;2023-07-31T06:34:43;100163.25;;;18.32;61.94
46583;BME280;32309;48.858;8.252;2023-07-31T06:36:43;100168.03;;;18.37;61.72
46583;BME280;32309;48.858;8.252;2023-07-31T06:38:43;100165.00;;;18.41;62.57
46583;BME280;32309;48.858;8.252;2023-07-31T06:40:44;100170.81;;;18.45;62.49
46583;BME280;32309;48.858;8.252;2023-07-31T06:42:44;100165.41;;;18.46;61.58
46583;BME280;32309;48.858;8.252;2023-07-31T06:44:47;100174.94;;;18.48;61.83
46583;BME280;32309;48.858;8.252;2023-07-31T06:46:47;100163.31;;;18.50;61.73
46583;BME280;32309;48.858;8.252;2023-07-31T06:48:47;100169.13;;;18.54;62.71
46583;BME280;32309;48.858;8.252;2023-07-31T06:50:47;100156.13;;;18.52;61.64
46583;BME280;32309;48.858;8.252;2023-07-31T06:52:48;100169.97;;;18.54;61.96
46583;BME280;32309;48.858;8.252;2023-07-31T06:55:00;100170.06;;;18.53;62.25
46583;BME280;32309;48.858;8.252;2023-07-31T06:57:03;100164.16;;;18.51;60.72
46583;BME280;32309;48.858;8.252;2023-07-31T06:59:04;100179.06;;;18.50;61.08
46583;BME280;32309;48.858;8.252;2023-07-31T07:01:04;100180.88;;;18.50;61.07
46583;BME280;32309;48.858;8.252;2023-07-31T07:03:04;100160.16;;;18.46;60.77
46583;BME280;32309;48.858;8.252;2023-07-31T07:05:04;100162.50;;;18.50;61.09
46583;BME280;32309;48.858;8.252;2023-07-31T07:07:06;100167.44;;;18.53;61.53
46583;BME280;32309;48.858;8.252;2023-07-31T07:09:07;100164.56;;;18.56;62.00
46583;BME280;32309;48.858;8.252;2023-07-31T07:11:07;100151.16;;;18.59;61.30
46583;BME280;32309;48.858;8.252;2023-07-31T07:13:08;100152.50;;;18.63;62.16
46583;BME280;32309;48.858;8.252;2023-07-31T07:15:09;100154.41;;;18.71;61.17
46583;BME280;32309;48.858;8.252;2023-07-31T07:17:09;100154.50;;;18.79;61.18
46583;BME280;32309;48.858;8.252;2023-07-31T07:19:10;100150.34;;;18.86;60.70
46583;BME280;32309;48.858;8.252;2023-07-31T07:21:10;100146.34;;;18.92;60.40
46583;BME280;32309;48.858;8.252;2023-07-31T07:23:14;100147.03;;;18.94;59.98
46583;BME280;32309;48.858;8.252;2023-07-31T07:25:14;100145.91;;;18.97;60.41
46583;BME280;32309;48.858;8.252;2023-07-31T07:27:15;100140.38;;;19.00;60.23
46583;BME280;32309;48.858;8.252;2023-07-31T07:29:15;100135.81;;;19.02;60.06
46583;BME280;32309;48.858;8.252;2023-07-31T07:31:15;100141.72;;;19.04;61.17
46583;BME280;32309;48.858;8.252;2023-07-31T07:33:16;100141.06;;;19.02;59.82
46583;BME280;32309;48.858;8.252;2023-07-31T07:35:16;100139.41;;;19.01;59.89
46583;BME280;32309;48.858;8.252;2023-07-31T07:37:16;100138.56;;;19.00;59.94
46583;BME280;32309;48.858;8.252;2023-07-31T07:39:16;100136.63;;;19.02;59.88
46583;BME280;32309;48.858;8.252;2023-07-31T07:41:17;100132.19;;;19.03;59.25
46583;BME280;32309;48.858;8.252;2023-07-31T07:43:17;100135.91;;;19.10;59.48
46583;BME280;32309;48.858;8.252;2023-07-31T07:45:17;100130.19;;;19.15;60.01
46583;BME280;32309;48.858;8.252;2023-07-31T07:47:18;100129.44;;;19.22;59.38
46583;BME280;32309;48.858;8.252;2023-07-31T07:49:18;100122.50;;;19.31;58.77
46583;BME280;32309;48.858;8.252;2023-07-31T07:51:18;100121.88;;;19.37;58.86
46583;BME280;32309;48.858;8.252;2023-07-31T07:53:18;100114.75;;;19.48;58.86
46583;BME280;32309;48.858;8.252;2023-07-31T07:55:19;100120.44;;;19.61;58.68
46583;BME280;32309;48.858;8.252;2023-07-31T07:57:19;100120.53;;;19.69;57.65
46583;BME280;32309;48.858;8.252;2023-07-31T07:59:20;100119.34;;;19.82;58.25
46583;BME280;32309;48.858;8.252;2023-07-31T08:01:20;100123.03;;;19.89;58.70
46583;BME280;32309;48.858;8.252;2023-07-31T08:03:20;100126.47;;;19.89;57.13
46583;BME280;32309;48.858;8.252;2023-07-31T08:05:21;100130.47;;;19.93;57.00
46583;BME280;32309;48.858;8.252;2023-07-31T08:07:21;100119.94;;;19.93;56.68
46583;BME280;32309;48.858;8.252;2023-07-31T08:09:21;100128.88;;;20.01;58.32
46583;BME280;32309;48.858;8.252;2023-07-31T08:11:21;100133.34;;;20.08;57.87
46583;BME280;32309;48.858;8.252;2023-07-31T08:13:23;100130.06;;;20.06;56.46
46583;BME280;32309;48.858;8.252;2023-07-31T08:15:23;100130.44;;;20.11;56.90
46583;BME280;32309;48.858;8.252;2023-07-31T08:17:24;100121.63;;;20.21;57.47
46583;BME280;32309;48.858;8.252;2023-07-31T08:19:24;100122.44;;;20.21;56.03
46583;BME280;32309;48.858;8.252;2023-07-31T08:21:24;100124.97;;;20.31;56.69
46583;BME280;32309;48.858;8.252;2023-07-31T08:23:25;100121.41;;;20.40;57.14
46583;BME280;32309;48.858;8.252;2023-07-31T08:25:25;100122.38;;;20.39;56.24
46583;BME280;32309;48.858;8.252;2023-07-31T08:27:25;100127.94;;;20.36;55.94
46583;BME280;32309;48.858;8.252;2023-07-31T08:29:25;100125.53;;;20.43;56.73
46583;BME280;32309;48.858;8.252;2023-07-31T08:31:26;100115.34;;;20.48;57.27
46583;BME280;32309;48.858;8.252;2023-07-31T08:33:27;100116.19;;;20.49;56.26
46583;BME280;32309;48.858;8.252;2023-07-31T08:35:27;100116.19;;;20.49;56.23
46583;BME280;32309;48.858;8.252;2023-07-31T08:37:30;100117.66;;;20.51;56.73
46583;BME280;32309;48.858;8.252;2023-07-31T08:39:30;100104.66;;;20.50;55.63
46583;BME280;32309;48.858;8.252;2023-07-31T08:41:31;100107.78;;;20.53;56.19
46583;BME280;32309;48.858;8.252;2023-07-31T08:43:31;100099.09;;;20.53;56.29
46583;BME280;32309;48.858;8.252;2023-07-31T08:45:32;100092.06;;;20.61;56.69
46583;BME280;32309;48.858;8.252;2023-07-31T08:47:33;100094.53;;;20.63;55.57
46583;BME280;32309;48.858;8.252;2023-07-31T08:49:35;100085.88;;;20.79;56.27
46583;BME280;32309;48.858;8.252;2023-07-31T08:51:38;100091.38;;;20.94;55.60
46583;BME280;32309;48.858;8.252;2023-07-31T08:53:39;100087.91;;;20.93;54.66
46583;BME280;32309;48.858;8.252;2023-07-31T08:55:39;100082.16;;;20.98;54.91
46583;BME280;32309;48.858;8.252;2023-07-31T08:57:40;100079.56;;;21.06;55.13
46583;BME280;32309;48.858;8.252;2023-07-31T08:59:41;100084.31;;;21.11;54.34
46583;BME280;32309;48.858;8.252;2023-07-31T09:01:43;100082.66;;;21.10;55.01
46583;BME280;32309;48.858;8.252;2023-07-31T09:03:49;100082.66;;;21.10;54.92
46583;BME280;32309;48.858;8.252;2023-07-31T09:05:52;100086.78;;;21.13;54.66
46583;BME280;32309;48.858;8.252;2023-07-31T09:07:53;100081.88;;;21.18;55.05
46583;BME280;32309;48.858;8.252;2023-07-31T09:09:56;100082.53;;;21.20;54.05
46583;BME280;32309;48.858;8.252;2023-07-31T09:11:57;100076.44;;;21.19;54.11
46583;BME280;32309;48.858;8.252;2023-07-31T09:13:58;100074.63;;;21.28;54.91
46583;BME280;32309;48.858;8.252;2023-07-31T09:16:01;100066.72;;;21.36;53.16
46583;BME280;32309;48.858;8.252;2023-07-31T09:18:02;100072.34;;;21.50;54.26
46583;BME280;32309;48.858;8.252;2023-07-31T09:20:15;100069.09;;;21.56;54.00
46583;BME280;32309;48.858;8.252;2023-07-31T09:22:30;100057.34;;;21.50;51.85
46583;BME280;32309;48.858;8.252;2023-07-31T09:24:33;100059.50;;;21.55;52.52
46583;BME280;32309;48.858;8.252;2023-07-31T09:26:37;100052.91;;;21.59;52.70
46583;BME280;32309;48.858;8.252;2023-07-31T09:28:37;100048.66;;;21.66;53.55
46583;BME280;32309;48.858;8.252;2023-07-31T09:30:44;100044.19;;;21.67;51.31
46583;BME280;32309;48.858;8.252;2023-07-31T09:32:47;100043.69;;;21.71;52.04
46583;BME280;32309;48.858;8.252;2023-07-31T09:34:49;100041.72;;;21.82;52.78
46583;BME280;32309;48.858;8.252;2023-07-31T09:36:57;100042.84;;;21.87;51.23
46583;BME280;32309;48.858;8.252;2023-07-31T09:39:01;100033.09;;;21.88;51.32
46583;BME280;32309;48.858;8.252;2023-07-31T09:41:03;100040.22;;;21.87;51.32
46583;BME280;32309;48.858;8.252;2023-07-31T09:43:09;100032.78;;;21.91;52.80
46583;BME280;32309;48.858;8.252;2023-07-31T09:45:11;100036.06;;;21.93;51.08
46583;BME280;32309;48.858;8.252;2023-07-31T09:47:24;100023.38;;;21.97;51.31
46583;BME280;32309;48.858;8.252;2023-07-31T09:49:24;100037.88;;;22.01;51.69
46583;BME280;32309;48.858;8.252;2023-07-31T09:51:28;100031.63;;;21.93;50.43
46583;BME280;32309;48.858;8.252;2023-07-31T09:53:31;100034.75;;;21.89;50.41
46583;BME280;32309;48.858;8.252;2023-07-31T09:55:32;100026.66;;;21.90;50.79
46583;BME280;32309;48.858;8.252;2023-07-31T09:57:48;100027.81;;;21.88;50.57
46583;BME280;32309;48.858;8.252;2023-07-31T09:59:49;100029.16;;;21.84;50.69
46583;BME280;32309;48.858;8.252;2023-07-31T10:02:10;100025.72;;;21.83;50.87
46583;BME280;32309;48.858;8.252;2023-07-31T10:16:05;100010.25;;;21.64;52.43
46583;BME280;32309;48.858;8.252;2023-07-31T10:18:21;100020.44;;;21.67;52.11
46583;BME280;32309;48.858;8.252;2023-07-31T10:27:16;100015.78;;;21.85;52.54
46583;BME280;32309;48.858;8.252;2023-07-31T10:32:33;100017.56;;;22.01;51.42
46583;BME280;32309;48.858;8.252;2023-07-31T10:34:35;100014.44;;;22.06;51.94
46583;BME280;32309;48.858;8.252;2023-07-31T10:36:36;100011.78;;;22.06;51.62
46583;BME280;32309;48.858;8.252;2023-07-31T10:38:36;100017.22;;;22.13;52.44
46583;BME280;32309;48.858;8.252;2023-07-31T10:40:37;100017.53;;;22.18;51.93
46583;BME280;32309;48.858;8.252;2023-07-31T10:42:38;100025.63;;;22.16;52.02
46583;BME280;32309;48.858;8.252;2023-07-31T10:44:47;100032.06;;;22.14;50.96
46583;BME280;32309;48.858;8.252;2023-07-31T10:46:48;100020.84;;;22.11;51.08
46583;BME280;32309;48.858;8.252;2023-07-31T10:48:49;100012.59;;;22.15;50.71
46583;BME280;32309;48.858;8.252;2023-07-31T10:50:57;100019.16;;;22.27;51.38
46583;BME280;32309;48.858;8.252;2023-07-31T10:52:58;100031.34;;;22.28;49.75
46583;BME280;32309;48.858;8.252;2023-07-31T10:57:44;100011.66;;;22.47;50.88
46583;BME280;32309;48.858;8.252;2023-07-31T10:59:47;100022.94;;;22.41;49.37
46583;BME280;32309;48.858;8.252;2023-07-31T11:03:56;100016.44;;;22.52;50.03
46583;BME280;32309;48.858;8.252;2023-07-31T11:06:00;100012.63;;;22.54;50.36
46583;BME280;32309;48.858;8.252;2023-07-31T11:08:09;99998.28;;;22.49;48.87
46583;BME280;32309;48.858;8.252;2023-07-31T11:10:22;100009.69;;;22.49;50.60
46583;BME280;32309;48.858;8.252;2023-07-31T11:12:22;99999.06;;;22.57;50.84
46583;BME280;32309;48.858;8.252;2023-07-31T11:14:23;99993.97;;;22.56;50.44
46583;BME280;32309;48.858;8.252;2023-07-31T11:16:24;99996.59;;;22.56;50.03
46583;BME280;32309;48.858;8.252;2023-07-31T11:18:28;99997.97;;;22.52;49.68
46583;BME280;32309;48.858;8.252;2023-07-31T11:24:41;99988.63;;;22.64;50.01
46583;BME280;32309;48.858;8.252;2023-07-31T11:26:49;99983.16;;;22.66;50.41
46583;BME280;32309;48.858;8.252;2023-07-31T11:40:30;99973.84;;;23.01;49.57
46583;BME280;32309;48.858;8.252;2023-07-31T11:42:38;99969.84;;;23.05;49.56
46583;BME280;32309;48.858;8.252;2023-07-31T11:44:39;99969.66;;;23.15;50.11
46583;BME280;32309;48.858;8.252;2023-07-31T11:46:52;99974.88;;;23.23;49.84
46583;BME280;32309;48.858;8.252;2023-07-31T11:54:03;99957.88;;;23.56;49.74
46583;BME280;32309;48.858;8.252;2023-07-31T11:59:06;99942.91;;;23.78;49.49
46583;BME280;32309;48.858;8.252;2023-07-31T12:01:08;99941.09;;;23.79;48.74
46583;BME280;32309;48.858;8.252;2023-07-31T12:03:31;99933.19;;;23.93;49.28
46583;BME280;32309;48.858;8.252;2023-07-31T12:08:34;99922.84;;;23.99;48.21
46583;BME280;32309;48.858;8.252;2023-07-31T12:16:11;99898.97;;;23.92;48.70
46583;BME280;32309;48.858;8.252;2023-07-31T12:18:15;99890.47;;;23.97;48.43
46583;BME280;32309;48.858;8.252;2023-07-31T12:20:20;99910.63;;;23.83;48.12
46583;BME280;32309;48.858;8.252;2023-07-31T12:22:30;99907.09;;;23.90;47.85
46583;BME280;32309;48.858;8.252;2023-07-31T12:24:51;99895.00;;;24.03;48.43
46583;BME280;32309;48.858;8.252;2023-07-31T12:27:10;99899.75;;;24.07;47.96
46583;BME280;32309;48.858;8.252;2023-07-31T12:29:10;99901.22;;;24.10;47.78
46583;BME280;32309;48.858;8.252;2023-07-31T12:31:14;99890.25;;;24.13;49.10
46583;BME280;32309;48.858;8.252;2023-07-31T12:33:18;99895.94;;;24.10;47.79
46583;BME280;32309;48.858;8.252;2023-07-31T12:35:19;99897.94;;;24.08;47.57
46583;BME280;32309;48.858;8.252;2023-07-31T12:37:20;99888.97;;;24.09;48.38
46583;BME280;32309;48.858;8.252;2023-07-31T12:39:21;99885.94;;;24.12;48.38
46583;BME280;32309;48.858;8.252;2023-07-31T12:41:24;99877.75;;;24.07;47.80
46583;BME280;32309;48.858;8.252;2023-07-31T12:43:25;99882.88;;;24.08;48.33
46583;BME280;32309;48.858;8.252;2023-07-31T12:45:25;99878.13;;;24.04;47.53
46583;BME280;32309;48.858;8.252;2023-07-31T12:47:39;99877.94;;;24.05;48.69
46583;BME280;32309;48.858;8.252;2023-07-31T12:49:45;99876.13;;;24.06;48.54
46583;BME280;32309;48.858;8.252;2023-07-31T12:51:57;99872.84;;;24.04;48.64
46583;BME280;32309;48.858;8.252;2023-07-31T13:12:42;99843.47;;;24.20;48.94
46583;BME280;32309;48.858;8.252;2023-07-31T13:15:30;99845.03;;;24.15;48.11
46583;BME280;32309;48.858;8.252;2023-07-31T13:51:04;99814.06;;;23.93;48.38
46583;BME280;32309;48.858;8.252;2023-07-31T14:15:33;99802.78;;;23.70;49.78
46583;BME280;32309;48.858;8.252;2023-07-31T14:20:47;99812.56;;;23.69;49.75
46583;BME280;32309;48.858;8.252;2023-07-31T14:22:47;99804.97;;;23.66;49.42
46583;BME280;32309;48.858;8.252;2023-07-31T14:24:48;99802.31;;;23.66;50.04
46583;BME280;32309;48.858;8.252;2023-07-31T14:26:48;99803.34;;;23.65;49.74
46583;BME280;32309;48.858;8.252;2023-07-31T14:28:48;99796.22;;;23.66;50.04
46583;BME280;32309;48.858;8.252;2023-07-31T14:30:49;99793.13;;;23.62;50.68
46583;BME280;32309;48.858;8.252;2023-07-31T14:32:49;99791.75;;;23.66;49.20
46583;BME280;32309;48.858;8.252;2023-07-31T14:34:50;99787.84;;;23.62;49.10
46583;BME280;32309;48.858;8.252;2023-07-31T14:36:50;99774.81;;;23.60;50.10
46583;BME280;32309;48.858;8.252;2023-07-31T14:38:51;99778.44;;;23.59;49.13
46583;BME280;32309;48.858;8.252;2023-07-31T14:40:51;99777.44;;;23.60;50.04
46583;BME280;32309;48.858;8.252;2023-07-31T14:42:51;99765.41;;;23.58;49.27
46583;BME280;32309;48.858;8.252;2023-07-31T14:44:52;99767.72;;;23.61;48.92
46583;BME280;32309;48.858;8.252;2023-07-31T14:46:52;99756.28;;;23.60;49.67
46583;BME280;32309;48.858;8.252;2023-07-31T14:48:53;99766.69;;;23.62;49.20
46583;BME280;32309;48.858;8.252;2023-07-31T14:50:53;99763.22;;;23.62;49.46
46583;BME280;32309;48.858;8.252;2023-07-31T14:52:54;99767.06;;;23.59;49.59
46583;BME280;32309;48.858;8.252;2023-07-31T14:54:54;99763.22;;;23.62;50.75
46583;BME280;32309;48.858;8.252;2023-07-31T14:57:02;99751.66;;;23.63;50.68
46583;BME280;32309;48.858;8.252;2023-07-31T14:59:10;99749.06;;;23.69;51.08
46583;BME280;32309;48.858;8.252;2023-07-31T15:01:13;99725.78;;;23.80;50.78
46583;BME280;32309;48.858;8.252;2023-07-31T15:03:17;99728.94;;;23.90;50.49
46583;BME280;32309;48.858;8.252;2023-07-31T15:05:17;99722.69;;;23.98;50.67
46583;BME280;32309;48.858;8.252;2023-07-31T15:07:20;99719.94;;;24.06;50.22
46583;BME280;32309;48.858;8.252;2023-07-31T15:09:22;99714.88;;;24.11;50.29
46583;BME280;32309;48.858;8.252;2023-07-31T15:11:23;99719.63;;;24.16;49.76
46583;BME280;32309;48.858;8.252;2023-07-31T15:13:25;99703.78;;;24.22;49.74
46583;BME280;32309;48.858;8.252;2023-07-31T15:15:26;99705.63;;;24.22;49.45
46583;BME280;32309;48.858;8.252;2023-07-31T15:17:26;99703.97;;;24.21;50.43
46583;BME280;32309;48.858;8.252;2023-07-31T15:19:27;99702.72;;;24.17;49.71
46583;BME280;32309;48.858;8.252;2023-07-31T15:21:27;99695.63;;;24.24;49.46
46583;BME280;32309;48.858;8.252;2023-07-31T15:23:30;99705.44;;;24.23;49.19
46583;BME280;32309;48.858;8.252;2023-07-31T15:25:30;99696.88;;;24.28;49.93
46583;BME280;32309;48.858;8.252;2023-07-31T15:27:30;99690.97;;;24.26;49.70
46583;BME280;32309;48.858;8.252;2023-07-31T15:29:33;99692.22;;;24.30;49.95
46583;BME280;32309;48.858;8.252;2023-07-31T15:31:39;99694.06;;;24.30;49.44
46583;BME280;32309;48.858;8.252;2023-07-31T15:33:40;99693.44;;;24.28;49.17
46583;BME280;32309;48.858;8.252;2023-07-31T15:35:40;99690.34;;;24.24;49.23
46583;BME280;32309;48.858;8.252;2023-07-31T15:37:43;99690.75;;;24.21;49.42
46583;BME280;32309;48.858;8.252;2023-07-31T15:39:43;99691.69;;;24.13;49.07
46583;BME280;32309;48.858;8.252;2023-07-31T15:41:44;99698.19;;;24.11;49.18
46583;BME280;32309;48.858;8.252;2023-07-31T15:43:45;99698.56;;;24.07;49.86
46583;BME280;32309;48.858;8.252;2023-07-31T15:46:06;99703.44;;;24.04;49.93
46583;BME280;32309;48.858;8.252;2023-07-31T15:48:34;99704.38;;;23.96;49.83
46583;BME280;32309;48.858;8.252;2023-07-31T15:53:34;99701.31;;;23.77;51.73
46583;BME280;32309;48.858;8.252;2023-07-31T15:55:34;99704.59;;;23.80;53.01
46583;BME280;32309;48.858;8.252;2023-07-31T15:57:35;99707.41;;;23.78;51.88
46583;BME280;32309;48.858;8.252;2023-07-31T15:59:35;99704.16;;;23.76;52.21
46583;BME280;32309;48.858;8.252;2023-07-31T16:01:35;99707.00;;;23.74;50.95
46583;BME280;32309;48.858;8.252;2023-07-31T16:03:38;99700.25;;;23.72;51.47
46583;BME280;32309;48.858;8.252;2023-07-31T16:05:39;99699.16;;;23.66;51.12
46583;BME280;32309;48.858;8.252;2023-07-31T16:07:39;99693.25;;;23.64;51.62
46583;BME280;32309;48.858;8.252;2023-07-31T16:09:42;99698.94;;;23.61;51.93
46583;BME280;32309;48.858;8.252;2023-07-31T16:11:50;99694.84;;;23.58;52.01
46583;BME280;32309;48.858;8.252;2023-07-31T16:14:01;99694.56;;;23.53;52.10
46583;BME280;32309;48.858;8.252;2023-07-31T16:16:02;99695.31;;;23.47;52.22
46583;BME280;32309;48.858;8.252;2023-07-31T16:18:02;99695.69;;;23.44;52.56
46583;BME280;32309;48.858;8.252;2023-07-31T16:20:06;99698.69;;;23.41;52.99
46583;BME280;32309;48.858;8.252;2023-07-31T16:22:06;99692.13;;;23.37;53.73
46583;BME280;32309;48.858;8.252;2023-07-31T16:24:07;99683.59;;;23.35;54.36
46583;BME280;32309;48.858;8.252;2023-07-31T16:26:09;99673.56;;;23.30;53.94
46583;BME280;32309;48.858;8.252;2023-07-31T16:28:10;99668.00;;;23.25;53.52
46583;BME280;32309;48.858;8.252;2023-07-31T16:30:10;99664.75;;;23.23;53.31
46583;BME280;32309;48.858;8.252;2023-07-31T16:32:13;99665.94;;;23.20;53.75
46583;BME280;32309;48.858;8.252;2023-07-31T16:34:14;99659.00;;;23.19;53.87
46583;BME280;32309;48.858;8.252;2023-07-31T16:36:14;99657.53;;;23.17;53.78
46583;BME280;32309;48.858;8.252;2023-07-31T16:38:14;99646.97;;;23.17;54.03
46583;BME280;32309;48.858;8.252;2023-07-31T16:40:15;99634.94;;;23.14;53.49
46583;BME280;32309;48.858;8.252;2023-07-31T16:42:15;99637.59;;;23.14;54.79
46583;BME280;32309;48.858;8.252;2023-07-31T16:44:15;99639.56;;;23.12;54.92
46583;BME280;32309;48.858;8.252;2023-07-31T16:46:16;99640.13;;;23.07;54.63
46583;BME280;32309;48.858;8.252;2023-07-31T16:48:16;99635.56;;;23.01;54.75
46583;BME280;32309;48.858;8.252;2023-07-31T16:50:16;99636.56;;;23.00;55.13
46583;BME280;32309;48.858;8.252;2023-07-31T16:52:17;99636.16;;;22.97;55.46
46583;BME280;32309;48.858;8.252;2023-07-31T16:54:17;99640.78;;;22.94;55.29
46583;BME280;32309;48.858;8.252;2023-07-31T16:56:18;99643.63;;;22.93;55.62
46583;BME280;32309;48.858;8.252;2023-07-31T16:58:18;99642.81;;;22.92;55.58
46583;BME280;32309;48.858;8.252;2023-07-31T17:00:18;99649.91;;;22.92;55.19
46583;BME280;32309;48.858;8.252;2023-07-31T17:02:18;99649.09;;;22.91;55.75
46583;BME280;32309;48.858;8.252;2023-07-31T17:04:19;99640.16;;;22.92;55.69
46583;BME280;32309;48.858;8.252;2023-07-31T17:06:19;99640.50;;;22.89;54.97
46583;BME280;32309;48.858;8.252;2023-07-31T17:08:19;99632.41;;;22.91;55.69
46583;BME280;32309;48.858;8.252;2023-07-31T17:10:20;99628.94;;;22.90;56.12
46583;BME280;32309;48.858;8.252;2023-07-31T17:12:20;99632.25;;;22.92;56.87
46583;BME280;32309;48.858;8.252;2023-07-31T17:14:20;99627.75;;;22.93;56.16
46583;BME280;32309;48.858;8.252;2023-07-31T17:16:21;99625.75;;;22.95;56.40
46583;BME280;32309;48.858;8.252;2023-07-31T17:18:22;99630.22;;;22.94;56.48
46583;BME280;32309;48.858;8.252;2023-07-31T17:20:22;99630.41;;;22.93;56.04
46583;BME280;32309;48.858;8.252;2023-07-31T17:22:22;99627.94;;;22.91;55.71
46583;BME280;32309;48.858;8.252;2023-07-31T17:24:22;99632.59;;;22.89;55.31
46583;BME280;32309;48.858;8.252;2023-07-31T17:26:23;99627.88;;;22.85;55.10
46583;BME280;32309;48.858;8.252;2023-07-31T17:28:23;99633.50;;;22.82;54.74
46583;BME280;32309;48.858;8.252;2023-07-31T17:30:23;99627.41;;;22.81;54.57
46583;BME280;32309;48.858;8.252;2023-07-31T17:32:24;99626.13;;;22.77;54.16
46583;BME280;32309;48.858;8.252;2023-07-31T17:34:24;99620.41;;;22.73;54.24
46583;BME280;32309;48.858;8.252;2023-07-31T17:36:24;99619.31;;;22.68;53.96
46583;BME280;32309;48.858;8.252;2023-07-31T17:38:27;99615.03;;;22.67;54.62
46583;BME280;32309;48.858;8.252;2023-07-31T17:40:27;99620.41;;;22.58;54.26
46583;BME280;32309;48.858;8.252;2023-07-31T17:42:27;99624.88;;;22.58;54.15
46583;BME280;32309;48.858;8.252;2023-07-31T17:44:28;99618.97;;;22.56;54.37
46583;BME280;32309;48.858;8.252;2023-07-31T17:46:30;99625.41;;;22.53;54.95
46583;BME280;32309;48.858;8.252;2023-07-31T17:48:31;99619.50;;;22.51;54.68
46583;BME280;32309;48.858;8.252;2023-07-31T17:57:05;99636.00;;;22.38;56.04
46583;BME280;32309;48.858;8.252;2023-07-31T17:59:08;99636.66;;;22.32;57.20
46583;BME280;32309;48.858;8.252;2023-07-31T18:01:30;99647.31;;;22.24;59.53
46583;BME280;32309;48.858;8.252;2023-07-31T18:03:33;99657.94;;;22.16;60.31
46583;BME280;32309;48.858;8.252;2023-07-31T18:05:55;99656.91;;;22.02;62.19
46583;BME280;32309;48.858;8.252;2023-07-31T18:08:21;99657.75;;;21.79;63.18
46583;BME280;32309;48.858;8.252;2023-07-31T18:23:33;99671.88;;;20.92;71.32